Time;durP1;ratioP1;P1;durP2;ratioP2;P2;SDS_P1;SDS_P2;PMS_P1;PMS_P2;Temp;Humidity;BMP_temperature;BMP_pressure;BME280_temperature;BME280_humidity;BME280_pressure;Samples;Min_cycle;Max_cycle;Signal;HPM_P1;HPM_P2
2022/09/01 00:01:48;;;;;;;2.78;1.55;;;;;;;16.83;53.81;101925.59;4770406;30;20101;-60
2022/09/01 00:04:20;;;;;;;3.42;1.50;;;;;;;16.83;54.24;101923.81;4770183;30;20044;-61
2022/09/01 00:06:47;;;;;;;5.85;1.25;;;;;;;16.68;54.96;101918.88;4770276;30;20130;-61
2022/09/01 00:09:17;;;;;;;3.55;1.60;;;;;;;16.67;55.23;101920.66;4770283;30;20040;-62
2022/09/01 00:11:47;;;;;;;3.38;1.60;;;;;;;16.66;55.37;101918.03;4768735;30;20442;-61
2022/09/01 00:14:13;;;;;;;3.03;1.40;;;;;;;16.67;55.43;101920.66;4770265;30;20425;-60
2022/09/01 00:16:38;;;;;;;5.20;1.63;;;;;;;16.58;56.05;101912.91;4770354;30;20139;-62
2022/09/01 00:19:04;;;;;;;6.20;1.60;;;;;;;16.54;56.37;101919.13;4770315;30;20060;-60
2022/09/01 00:21:34;;;;;;;3.53;1.67;;;;;;;16.53;56.83;101913.88;4770064;30;20066;-60
2022/09/01 00:24:00;;;;;;;3.30;1.58;;;;;;;16.55;56.98;101915.59;4769976;30;20043;-61
2022/09/01 00:26:26;;;;;;;3.50;1.60;;;;;;;16.53;57.54;101913.88;4769735;30;20476;-61
2022/09/01 00:28:52;;;;;;;2.83;1.40;;;;;;;16.46;57.46;101915.78;4770193;30;20058;-62
2022/09/01 00:31:18;;;;;;;4.45;1.70;;;;;;;16.41;57.78;101915.00;4769908;30;20155;-60
2022/09/01 00:33:45;;;;;;;3.53;1.60;;;;;;;16.40;58.41;101915.03;4769878;30;20521;-61
2022/09/01 00:36:11;;;;;;;3.28;1.70;;;;;;;16.33;58.77;101919.56;4769844;30;20040;-63
2022/09/01 00:38:38;;;;;;;1.90;1.48;;;;;;;16.30;59.21;101923.13;4769971;30;20119;-61
2022/09/01 00:41:06;;;;;;;4.90;1.80;;;;;;;16.25;59.37;101918.88;4769782;30;20039;-64
2022/09/01 00:43:52;;;;;;;4.95;1.60;;;;;;;16.18;59.06;101923.38;4769627;30;20047;-60
2022/09/01 00:46:25;;;;;;;4.40;1.58;;;;;;;16.20;60.48;101915.44;4769571;30;20036;-60
2022/09/01 00:48:58;;;;;;;4.03;1.60;;;;;;;16.17;60.18;101910.22;4769573;30;20390;-60
2022/09/01 00:51:25;;;;;;;4.03;1.65;;;;;;;16.14;60.67;101910.25;4769433;30;20047;-60
2022/09/01 00:53:51;;;;;;;5.60;1.70;;;;;;;16.13;61.17;101916.44;4769230;30;20376;-60
2022/09/01 00:56:17;;;;;;;4.57;1.70;;;;;;;16.13;61.21;101914.69;4769280;30;20067;-59
2022/09/01 00:58:42;;;;;;;5.15;1.70;;;;;;;16.18;61.54;101919.88;4769169;30;20054;-64
2022/09/01 01:01:09;;;;;;;3.90;1.60;;;;;;;16.17;61.45;101916.38;4769136;30;20044;-61
2022/09/01 01:03:35;;;;;;;4.65;1.90;;;;;;;16.18;61.68;101907.53;4769193;30;20040;-60
2022/09/01 01:06:07;;;;;;;3.90;1.73;;;;;;;16.14;61.48;101911.13;4769446;30;20051;-61
2022/09/01 01:08:35;;;;;;;3.80;1.73;;;;;;;16.09;62.18;101909.50;4769382;30;20048;-63
2022/09/01 01:11:17;;;;;;;6.85;2.45;;;;;;;16.05;61.99;101910.47;4769327;30;20039;-62
2022/09/01 01:14:11;;;;;;;3.65;2.00;;;;;;;16.02;61.87;101906.09;4769323;30;20078;-59
2022/09/01 01:16:40;;;;;;;2.90;2.17;;;;;;;15.93;62.85;101901.84;4769214;30;20127;-59
2022/09/01 01:23:00;;;;;;;3.30;1.83;;;;;;;15.87;63.43;101895.81;4768732;30;20114;-62
2022/09/01 01:24:39;;;;;;;2.88;2.03;;;;;;;15.94;63.55;101905.34;4768335;30;20125;-59
2022/09/01 01:27:05;;;;;;;3.00;2.38;;;;;;;15.73;63.97;101889.94;4769083;30;20067;-62
2022/09/01 01:29:34;;;;;;;5.20;1.63;;;;;;;15.79;64.29;101897.72;4769085;30;20117;-65
2022/09/01 01:31:59;;;;;;;3.92;2.10;;;;;;;15.79;64.25;101895.09;4769013;30;20126;-60
2022/09/01 01:34:24;;;;;;;3.28;1.90;;;;;;;15.84;64.65;101899.38;4768559;30;20126;-61
2022/09/01 01:36:51;;;;;;;5.38;2.00;;;;;;;15.79;64.98;101905.63;4768657;30;20044;-60
2022/09/01 01:39:21;;;;;;;5.20;2.10;;;;;;;15.77;65.08;101896.88;4768843;30;20054;-62
2022/09/01 01:41:50;;;;;;;5.80;2.00;;;;;;;15.75;65.05;101903.97;4768780;30;20044;-63
2022/09/01 01:44:19;;;;;;;5.40;2.15;;;;;;;15.61;65.39;101905.06;4768900;30;20507;-63
2022/09/01 01:46:48;;;;;;;5.50;2.33;;;;;;;15.60;65.78;101907.72;4767186;30;20050;-61
2022/09/01 01:49:19;;;;;;;4.47;2.05;;;;;;;15.60;65.62;101903.31;4768266;30;20491;-61
2022/09/01 01:51:46;;;;;;;4.00;2.03;;;;;;;15.61;65.99;101912.09;4768299;30;20450;-61
2022/09/01 01:54:12;;;;;;;2.92;2.00;;;;;;;15.60;65.97;101905.97;4768601;30;20080;-62
2022/09/01 01:56:38;;;;;;;12.95;2.63;;;;;;;15.54;66.31;101911.34;4768348;30;20088;-60
2022/09/01 01:59:05;;;;;;;3.08;2.00;;;;;;;15.59;66.24;101912.13;4768706;30;20672;-61
2022/09/01 02:01:31;;;;;;;4.55;2.08;;;;;;;15.60;66.15;101913.88;4768630;30;20031;-60
2022/09/01 02:03:59;;;;;;;2.88;2.00;;;;;;;15.61;66.30;101907.69;4768388;30;20100;-61
2022/09/01 02:06:26;;;;;;;3.25;2.10;;;;;;;15.59;66.62;101913.91;4768396;30;20047;-61
2022/09/01 02:08:57;;;;;;;3.33;2.17;;;;;;;15.52;66.90;101913.13;4768586;30;20035;-64
2022/09/01 02:11:24;;;;;;;7.32;2.08;;;;;;;15.48;66.59;101907.91;4768234;30;20047;-61
2022/09/01 02:13:55;;;;;;;4.55;2.22;;;;;;;15.51;66.90;101907.88;4768359;30;20093;-64
2022/09/01 02:16:21;;;;;;;4.10;1.85;;;;;;;15.47;67.10;101907.03;4768230;30;20078;-61
2022/09/01 02:18:47;;;;;;;2.75;2.00;;;;;;;15.49;67.08;101914.94;4768233;30;20039;-64
2022/09/01 02:21:18;;;;;;;5.65;2.47;;;;;;;15.45;67.14;101914.09;4768284;30;20090;-61
2022/09/01 02:23:45;;;;;;;6.38;2.78;;;;;;;15.44;67.09;101917.63;4767854;30;20047;-60
2022/09/01 02:26:10;;;;;;;3.55;2.50;;;;;;;15.30;67.38;101902.03;4768382;30;20059;-61
2022/09/01 02:28:41;;;;;;;3.13;2.28;;;;;;;15.27;67.91;101911.75;4768131;30;20139;-59
2022/09/01 02:31:07;;;;;;;3.78;2.08;;;;;;;15.25;67.93;101910.91;4768049;30;20101;-63
2022/09/01 02:33:34;;;;;;;4.63;2.13;;;;;;;15.23;68.28;101910.09;4768126;30;20116;-62
2022/09/01 02:36:04;;;;;;;4.68;1.95;;;;;;;15.24;68.45;101917.06;4770318;30;20053;-63
2022/09/01 02:38:32;;;;;;;3.30;2.53;;;;;;;15.19;68.39;101911.03;4770967;30;20408;-62
2022/09/01 02:41:00;;;;;;;2.88;2.03;;;;;;;15.18;68.54;101918.06;4771975;30;20413;-60
2022/09/01 02:43:27;;;;;;;5.13;2.22;;;;;;;15.19;68.73;101911.03;4771732;30;20043;-60
2022/09/01 02:45:56;;;;;;;3.15;2.20;;;;;;;15.16;68.58;101911.94;4771473;30;20074;-63
2022/09/01 02:48:36;;;;;;;4.30;2.38;;;;;;;15.12;68.80;101914.63;4771406;30;20446;-61
2022/09/01 02:51:12;;;;;;;4.43;2.28;;;;;;;15.03;69.13;101910.38;4771616;30;20445;-59
2022/09/01 02:53:40;;;;;;;4.78;2.60;;;;;;;15.05;69.19;101897.19;4770911;30;20073;-60
2022/09/01 02:56:10;;;;;;;4.30;2.40;;;;;;;14.99;69.44;101908.69;4770603;30;20082;-61
2022/09/01 02:58:44;;;;;;;2.88;2.25;;;;;;;14.90;69.73;101901.75;4770401;30;20047;-62
2022/09/01 03:01:23;;;;;;;3.72;2.35;;;;;;;14.93;69.60;101896.44;4770373;30;20035;-60
2022/09/01 03:03:51;;;;;;;2.88;2.22;;;;;;;14.93;70.24;101900.84;4770330;30;20043;-62
2022/09/01 03:06:18;;;;;;;4.75;2.53;;;;;;;14.89;70.16;101892.13;4770047;30;20051;-62
2022/09/01 03:08:44;;;;;;;5.93;2.40;;;;;;;14.86;70.11;101879.00;4770041;30;20054;-63
2022/09/01 03:11:10;;;;;;;5.10;2.70;;;;;;;14.79;70.34;101869.44;4769839;30;20035;-60
2022/09/01 03:13:37;;;;;;;3.78;2.40;;;;;;;14.91;70.29;101890.31;4769835;30;20055;-60
2022/09/01 03:16:07;;;;;;;6.22;2.55;;;;;;;14.85;70.55;101889.56;4769959;30;20109;-62
2022/09/01 03:18:33;;;;;;;8.82;2.30;;;;;;;14.88;70.48;101894.81;4769991;30;20450;-62
2022/09/01 03:21:01;;;;;;;7.45;2.55;;;;;;;14.79;70.70;101889.66;4769908;30;20051;-62
2022/09/01 03:23:27;;;;;;;3.50;2.50;;;;;;;14.77;70.41;101897.56;4769879;30;20046;-62
2022/09/01 03:25:52;;;;;;;6.43;2.28;;;;;;;14.74;70.81;101891.47;4769907;30;20082;-60
2022/09/01 03:28:18;;;;;;;5.60;2.50;;;;;;;14.72;70.69;101896.75;4769965;30;20039;-62
2022/09/01 03:30:47;;;;;;;5.55;2.40;;;;;;;14.64;71.09;101896.00;4769735;30;20381;-65
2022/09/01 03:33:15;;;;;;;6.53;2.50;;;;;;;14.68;71.31;101902.09;4769723;30;20059;-62
2022/09/01 03:35:41;;;;;;;5.85;2.08;;;;;;;14.72;70.99;101895.91;4769535;30;20108;-62
2022/09/01 03:38:07;;;;;;;6.05;2.55;;;;;;;14.65;71.20;101897.75;4769657;30;20132;-61
2022/09/01 03:40:35;;;;;;;5.43;2.47;;;;;;;14.63;71.37;101902.16;4769728;30;20434;-59
2022/09/01 03:43:03;;;;;;;5.00;2.55;;;;;;;14.65;70.99;101897.75;4769560;30;20039;-60
2022/09/01 03:45:29;;;;;;;4.57;2.60;;;;;;;14.61;71.23;101891.63;4769505;30;20039;-61
2022/09/01 03:47:55;;;;;;;5.82;2.70;;;;;;;14.59;71.33;101892.53;4769445;30;20362;-63
2022/09/01 03:50:23;;;;;;;4.18;2.45;;;;;;;14.51;71.43;101897.06;4769629;30;20039;-61
2022/09/01 03:52:52;;;;;;;4.80;2.30;;;;;;;14.52;71.59;101897.03;4769423;30;20494;-59
2022/09/01 03:55:22;;;;;;;4.55;2.85;;;;;;;14.47;71.86;101897.97;4736180;30;1019510;-62
2022/09/01 03:57:50;;;;;;;5.78;2.58;;;;;;;14.45;71.89;101884.81;4770633;30;20043;-61
2022/09/01 04:00:22;;;;;;;3.33;2.40;;;;;;;14.37;71.94;101888.44;4770533;30;20043;-60
2022/09/01 04:02:55;;;;;;;4.45;2.53;;;;;;;14.38;72.23;101891.00;4770129;30;20469;-60
2022/09/01 04:05:23;;;;;;;3.67;2.30;;;;;;;14.36;72.42;101890.19;4770355;30;20051;-59
2022/09/01 04:07:50;;;;;;;6.13;2.58;;;;;;;14.40;72.64;101889.28;4770453;30;20092;-59
2022/09/01 04:10:16;;;;;;;6.47;2.70;;;;;;;14.46;72.48;101891.84;4775448;30;20168;-61
2022/09/01 04:12:42;;;;;;;5.50;2.45;;;;;;;14.51;72.13;101892.66;4788164;29;20047;-60
2022/09/01 04:15:08;;;;;;;4.60;2.50;;;;;;;14.60;71.67;101892.53;4787986;29;20058;-62
2022/09/01 04:20:19;;;;;;;3.92;2.63;;;;;;;14.47;71.82;101897.97;4787924;30;20147;-61
2022/09/01 04:22:49;;;;;;;5.25;2.35;;;;;;;14.44;72.36;101893.63;4787946;29;20043;-61
2022/09/01 04:25:21;;;;;;;3.72;2.40;;;;;;;14.41;72.52;101890.16;4788110;29;20039;-63
2022/09/01 04:27:48;;;;;;;3.63;2.40;;;;;;;14.52;72.20;101897.03;4787885;29;20043;-60
2022/09/01 04:30:13;;;;;;;6.30;2.50;;;;;;;14.49;72.23;101893.56;4787868;29;20051;-61
2022/09/01 04:32:39;;;;;;;6.47;2.75;;;;;;;14.51;71.86;101894.44;4787584;29;20047;-62
2022/09/01 04:35:06;;;;;;;4.38;2.72;;;;;;;14.47;72.26;101898.84;4787631;29;20133;-59
2022/09/01 04:37:31;;;;;;;2.80;2.28;;;;;;;14.49;72.15;101897.06;4787915;29;20063;-60
2022/09/01 04:39:57;;;;;;;6.13;2.60;;;;;;;14.40;71.90;101891.00;4787789;29;20409;-61
2022/09/01 04:42:27;;;;;;;3.92;2.35;;;;;;;14.34;72.13;101901.63;4787626;30;20126;-63
2022/09/01 04:44:53;;;;;;;4.28;2.40;;;;;;;14.31;72.36;101893.75;4787615;29;20138;-63
2022/09/01 04:47:28;;;;;;;4.32;2.60;;;;;;;14.17;72.57;101894.81;4787567;29;20118;-62
2022/09/01 04:49:58;;;;;;;6.45;2.53;;;;;;;14.14;72.82;101908.00;4787337;29;20150;-64
2022/09/01 04:52:24;;;;;;;4.30;2.30;;;;;;;14.14;72.88;101892.19;4787560;29;20039;-62
2022/09/01 04:54:49;;;;;;;5.75;2.55;;;;;;;14.16;73.04;101898.31;4787061;30;20074;-58
2022/09/01 04:57:15;;;;;;;5.45;2.60;;;;;;;14.12;72.43;101898.38;4786893;29;20142;-62
2022/09/01 04:59:41;;;;;;;3.55;2.30;;;;;;;14.13;72.65;101902.75;4787013;29;20043;-61
2022/09/01 05:02:08;;;;;;;6.00;2.60;;;;;;;14.04;72.87;101892.28;4787432;29;20039;-60
2022/09/01 05:04:34;;;;;;;3.75;2.20;;;;;;;14.09;72.54;101901.03;4787606;29;20039;-62
2022/09/01 05:07:00;;;;;;;3.90;2.30;;;;;;;14.02;72.61;101900.25;4787448;29;20049;-61
2022/09/01 05:09:28;;;;;;;2.97;2.40;;;;;;;14.06;72.48;101904.56;4787275;29;20054;-62
2022/09/01 05:11:56;;;;;;;3.92;2.42;;;;;;;14.01;72.57;101882.69;4787003;29;20047;-57
2022/09/01 05:14:22;;;;;;;6.63;2.80;;;;;;;14.06;72.21;101901.91;4786884;29;20031;-63
2022/09/01 05:16:49;;;;;;;5.15;2.25;;;;;;;13.97;72.71;101904.66;4787197;29;20452;-60
2022/09/01 05:19:16;;;;;;;5.75;2.72;;;;;;;13.94;72.89;101902.06;4787133;29;20043;-60
2022/09/01 05:21:44;;;;;;;6.38;2.90;;;;;;;13.99;72.71;101896.75;4786733;29;20092;-62
2022/09/01 05:24:11;;;;;;;3.88;2.60;;;;;;;14.13;72.73;101906.25;4786896;29;20134;-59
2022/09/01 05:26:39;;;;;;;5.07;2.50;;;;;;;14.09;72.42;101896.63;4786896;29;20370;-60
2022/09/01 05:29:16;;;;;;;3.88;2.53;;;;;;;14.13;72.32;101903.63;4786891;29;20094;-61
2022/09/01 05:31:47;;;;;;;5.95;2.63;;;;;;;14.20;72.39;101904.41;4783970;29;20106;-61
2022/09/01 05:34:18;;;;;;;4.03;2.33;;;;;;;14.22;72.06;101898.22;4774077;30;20113;-61
2022/09/01 05:36:47;;;;;;;3.23;2.43;;;;;;;14.17;71.96;101905.34;4786472;29;20461;-61
2022/09/01 05:39:12;;;;;;;5.38;2.75;;;;;;;14.18;71.99;101900.94;4773451;29;20312;-61
2022/09/01 05:41:39;;;;;;;6.93;2.85;;;;;;;14.15;72.24;101901.84;4767807;30;20035;-61
2022/09/01 05:44:06;;;;;;;4.93;2.80;;;;;;;14.15;71.79;101906.22;4768360;30;20067;-64
2022/09/01 05:46:34;;;;;;;4.22;2.38;;;;;;;14.15;71.95;101912.38;4768694;30;20035;-63
2022/09/01 05:49:01;;;;;;;8.10;2.80;;;;;;;14.12;71.92;101907.13;4768370;30;20043;-61
2022/09/01 05:51:33;;;;;;;5.68;2.35;;;;;;;14.19;71.90;101906.19;4768426;30;20054;-60
2022/09/01 05:53:58;;;;;;;5.35;2.38;;;;;;;14.69;70.42;101915.25;4768588;30;20369;-62
2022/09/01 05:56:25;;;;;;;4.63;2.72;;;;;;;15.03;68.89;101907.75;4768521;30;20063;-60
2022/09/01 05:58:52;;;;;;;6.07;3.10;;;;;;;14.89;68.77;101909.72;4768437;30;20090;-62
2022/09/01 06:01:25;;;;;;;7.00;2.60;;;;;;;14.72;69.52;101914.34;4768225;30;20055;-60
2022/09/01 06:03:53;;;;;;;6.38;2.28;;;;;;;14.58;70.00;101902.22;4768470;30;20035;-60
2022/09/01 06:06:21;;;;;;;3.63;2.75;;;;;;;14.55;70.03;101912.78;4768240;30;20095;-62
2022/09/01 06:08:48;;;;;;;3.80;2.50;;;;;;;14.49;70.42;101918.16;4767015;30;20054;-62
2022/09/01 06:11:16;;;;;;;4.00;2.38;;;;;;;14.45;70.72;101908.53;4768066;30;20258;-62
2022/09/01 06:13:46;;;;;;;3.55;2.33;;;;;;;14.54;70.38;101918.97;4768362;30;20048;-60
2022/09/01 06:16:15;;;;;;;5.10;2.47;;;;;;;14.54;70.20;101923.38;4766301;30;20045;-59
2022/09/01 06:18:42;;;;;;;6.45;2.70;;;;;;;14.58;70.18;101917.13;4767858;30;20040;-61
2022/09/01 06:21:08;;;;;;;8.57;2.65;;;;;;;14.61;69.98;101911.84;4768253;30;20134;-62
2022/09/01 06:23:35;;;;;;;5.22;2.70;;;;;;;14.52;70.01;101904.06;4768532;30;20054;-62
2022/09/01 06:26:02;;;;;;;6.47;2.40;;;;;;;14.64;70.35;101919.72;4768322;30;20043;-62
2022/09/01 06:28:28;;;;;;;3.95;2.72;;;;;;;14.66;69.53;101912.66;4768502;30;20040;-63
2022/09/01 06:30:56;;;;;;;5.07;2.55;;;;;;;14.68;69.63;101916.16;4768959;30;20054;-61
2022/09/01 06:33:23;;;;;;;6.55;2.70;;;;;;;14.76;70.11;101916.91;4785834;29;20062;-61
2022/09/01 06:35:51;;;;;;;3.85;2.60;;;;;;;14.80;69.34;101912.47;4786162;29;20046;-61
2022/09/01 06:38:18;;;;;;;5.32;2.75;;;;;;;14.77;69.24;101918.66;4785821;29;20453;-61
2022/09/01 06:40:44;;;;;;;4.35;2.38;;;;;;;14.84;69.09;101915.06;4786016;29;20517;-60
2022/09/01 06:43:11;;;;;;;7.78;2.80;;;;;;;15.01;69.08;101920.09;4785770;29;20114;-63
2022/09/01 06:45:43;;;;;;;6.47;2.90;;;;;;;15.15;68.43;101920.75;4786068;29;20050;-62
2022/09/01 06:48:08;;;;;;;8.43;2.72;;;;;;;15.19;67.99;101916.31;4786032;29;20047;-60
2022/09/01 06:50:34;;;;;;;4.75;2.75;;;;;;;15.28;67.73;101921.41;4786157;30;20124;-63
2022/09/01 06:53:07;;;;;;;4.95;2.63;;;;;;;15.35;67.89;101923.06;4785974;29;20268;-60
2022/09/01 06:55:36;;;;;;;4.18;2.55;;;;;;;15.46;67.53;101910.56;4785914;29;20066;-61
2022/09/01 06:58:04;;;;;;;8.38;2.90;;;;;;;15.60;66.46;101913.88;4785986;29;20074;-61
2022/09/01 07:00:29;;;;;;;6.95;2.67;;;;;;;15.76;66.04;101927.69;4785791;29;20107;-61
2022/09/01 07:02:56;;;;;;;6.63;2.67;;;;;;;15.83;66.32;101925.81;4785972;29;20039;-59
2022/09/01 07:05:23;;;;;;;8.20;2.55;;;;;;;15.79;66.05;101924.13;4785952;29;20042;-61
2022/09/01 07:07:54;;;;;;;6.90;3.20;;;;;;;15.88;65.87;101934.53;4786073;29;20507;-60
2022/09/01 07:10:25;;;;;;;4.18;2.90;;;;;;;16.06;66.05;101928.03;4785639;29;20456;-60
2022/09/01 07:12:52;;;;;;;6.38;2.85;;;;;;;16.14;65.11;101936.66;4785855;29;20047;-61
2022/09/01 07:15:18;;;;;;;8.60;2.70;;;;;;;16.11;65.51;101940.25;4785855;29;20374;-61
2022/09/01 07:17:53;;;;;;;4.65;2.72;;;;;;;16.11;65.58;101931.44;4785930;29;20050;-62
2022/09/01 07:20:21;;;;;;;5.68;3.03;;;;;;;16.11;66.13;101942.88;4781399;29;20043;-60
2022/09/01 07:22:47;;;;;;;3.88;2.55;;;;;;;16.14;65.78;101936.66;4781720;30;20050;-63
2022/09/01 07:25:13;;;;;;;6.55;3.08;;;;;;;16.20;65.87;101939.22;4788924;29;20121;-61
2022/09/01 07:27:40;;;;;;;3.92;2.53;;;;;;;16.31;65.71;101935.44;4788760;29;20039;-61
2022/09/01 07:30:08;;;;;;;6.47;2.78;;;;;;;16.47;65.15;101937.78;4788997;29;20104;-61
2022/09/01 07:32:35;;;;;;;4.28;2.80;;;;;;;16.55;64.47;101941.16;4788782;29;20043;-58
2022/09/01 07:35:02;;;;;;;5.38;2.80;;;;;;;16.55;64.53;101934.09;4789025;29;20043;-60
2022/09/01 07:37:27;;;;;;;4.18;2.75;;;;;;;16.65;63.94;101943.59;4788807;29;20039;-59
2022/09/01 07:39:53;;;;;;;4.28;2.50;;;;;;;16.72;63.93;101938.19;4788779;30;20045;-60
2022/09/01 07:42:19;;;;;;;4.50;2.80;;;;;;;16.83;63.99;101933.53;4788855;29;20043;-60
2022/09/01 07:44:46;;;;;;;8.90;3.20;;;;;;;16.91;63.37;101935.13;4788874;29;20388;-60
2022/09/01 07:47:14;;;;;;;4.70;2.72;;;;;;;16.98;63.60;101928.75;4788817;29;20381;-59
2022/09/01 07:49:40;;;;;;;3.75;2.70;;;;;;;17.06;63.51;101936.53;4788608;29;20050;-59
2022/09/01 07:52:06;;;;;;;7.07;2.63;;;;;;;17.09;63.21;101938.25;4788612;29;20035;-58
2022/09/01 07:54:32;;;;;;;7.03;2.55;;;;;;;17.11;62.92;101934.66;4788456;29;20043;-61
2022/09/01 07:56:58;;;;;;;6.93;2.70;;;;;;;17.24;63.46;101936.13;4788348;29;20369;-61
2022/09/01 07:59:23;;;;;;;6.80;2.80;;;;;;;17.30;62.88;101933.34;4788485;29;20058;-60
2022/09/01 08:01:49;;;;;;;5.82;2.83;;;;;;;17.39;63.32;101927.81;4788515;30;20043;-63
2022/09/01 08:04:15;;;;;;;7.35;3.13;;;;;;;17.51;62.95;101931.06;4777443;29;20378;-59
2022/09/01 08:06:40;;;;;;;7.32;3.00;;;;;;;17.56;62.53;101927.38;4770515;30;20058;-61
2022/09/01 08:09:06;;;;;;;6.85;2.95;;;;;;;17.64;62.49;101925.47;4770475;30;20043;-61
2022/09/01 08:11:32;;;;;;;6.38;2.80;;;;;;;17.71;62.28;101931.47;4770522;30;20557;-61
2022/09/01 08:13:59;;;;;;;6.88;2.80;;;;;;;17.80;62.64;101935.66;4770843;30;20048;-59
2022/09/01 08:16:26;;;;;;;4.95;2.75;;;;;;;17.92;62.45;101933.56;4770325;30;20485;-60
2022/09/01 08:18:52;;;;;;;7.70;3.17;;;;;;;17.99;61.92;101918.38;4770063;30;20467;-59
2022/09/01 08:21:20;;;;;;;6.95;2.90;;;;;;;18.15;61.50;101935.59;4770450;30;20054;-60
2022/09/01 08:23:46;;;;;;;4.53;3.10;;;;;;;18.21;61.15;101926.59;4770419;30;20090;-61
2022/09/01 08:26:14;;;;;;;6.57;3.53;;;;;;;18.33;60.80;101932.44;4769994;30;20067;-60
2022/09/01 08:28:40;;;;;;;6.22;3.05;;;;;;;18.42;61.34;101933.94;4769980;30;20040;-61
2022/09/01 08:31:11;;;;;;;5.40;2.80;;;;;;;18.49;60.98;101932.00;4770283;30;20047;-62
2022/09/01 08:33:39;;;;;;;10.88;3.08;;;;;;;18.56;60.53;101928.22;4768741;30;20394;-60
2022/09/01 08:36:07;;;;;;;7.03;3.78;;;;;;;18.59;59.98;101929.06;4769769;30;20039;-63
2022/09/01 08:38:33;;;;;;;7.90;2.95;;;;;;;18.63;60.40;101924.53;4769876;30;20035;-62
2022/09/01 08:40:59;;;;;;;6.47;3.75;;;;;;;18.71;60.06;101930.47;4769579;30;20481;-60
2022/09/01 08:43:30;;;;;;;7.85;3.25;;;;;;;19.03;59.41;101922.41;4769989;30;20047;-61
2022/09/01 08:46:01;;;;;;;5.57;3.13;;;;;;;19.12;58.84;101937.16;4769908;30;20055;-60
2022/09/01 08:48:36;;;;;;;4.93;3.03;;;;;;;19.15;59.45;101930.91;4769888;30;20047;-64
2022/09/01 08:51:12;;;;;;;7.47;3.13;;;;;;;19.27;58.94;101930.50;4769545;30;20751;-60
2022/09/01 08:53:48;;;;;;;5.65;3.10;;;;;;;19.39;57.95;101923.00;4769726;30;20067;-64
2022/09/01 08:56:16;;;;;;;5.90;2.80;;;;;;;19.41;58.23;101914.97;4769500;30;20124;-59
2022/09/01 08:58:41;;;;;;;7.07;3.30;;;;;;;19.56;57.91;101925.16;4769605;30;20039;-63
2022/09/01 09:01:26;;;;;;;6.93;2.70;;;;;;;20.14;57.43;101923.13;4769719;30;20050;-63
2022/09/01 09:04:18;;;;;;;6.90;2.90;;;;;;;20.64;56.01;101923.06;4769236;30;20366;-62
2022/09/01 09:06:53;;;;;;;13.80;2.80;;;;;;;20.64;54.61;101926.59;4769443;30;20114;-61
2022/09/01 09:09:19;;;;;;;4.43;2.80;;;;;;;20.59;54.28;101922.41;4769389;30;20063;-60
2022/09/01 09:12:02;;;;;;;4.88;2.65;;;;;;;20.70;55.34;101922.84;4768846;30;20413;-60
2022/09/01 09:14:41;;;;;;;9.48;2.35;;;;;;;20.78;55.15;101907.47;4769022;30;20044;-64
2022/09/01 09:17:08;;;;;;;7.28;2.90;;;;;;;20.97;53.45;101913.78;4769086;30;20056;-60
2022/09/01 09:19:39;;;;;;;5.95;2.72;;;;;;;21.12;53.05;101907.88;4769223;30;20144;-61
2022/09/01 09:22:09;;;;;;;4.60;2.22;;;;;;;21.23;52.25;101907.44;4769226;30;20047;-61
2022/09/01 09:24:58;;;;;;;2.65;2.15;;;;;;;21.34;52.74;101905.19;4769325;30;20042;-62
2022/09/01 09:27:31;;;;;;;4.13;2.20;;;;;;;21.62;51.50;101901.41;4769002;30;20036;-60
2022/09/01 09:30:03;;;;;;;5.60;2.13;;;;;;;21.72;51.79;101900.94;4769241;30;20090;-61
2022/09/01 09:32:48;;;;;;;4.55;2.10;;;;;;;21.87;51.10;101900.25;4768790;30;20389;-62
2022/09/01 09:35:24;;;;;;;5.47;2.30;;;;;;;22.07;49.50;101893.22;4768953;30;20062;-62
2022/09/01 09:37:50;;;;;;;3.55;2.20;;;;;;;22.27;48.64;101889.66;4769122;30;20454;-64
2022/09/01 09:40:19;;;;;;;5.78;2.50;;;;;;;22.35;48.79;101899.03;4769161;30;20082;-61
2022/09/01 09:42:53;;;;;;;3.08;1.60;;;;;;;22.52;47.36;101890.25;4769096;30;20043;-61
2022/09/01 09:45:25;;;;;;;3.45;2.10;;;;;;;22.64;47.15;101871.03;4768519;30;20035;-63
2022/09/01 09:47:52;;;;;;;6.53;1.88;;;;;;;22.94;46.70;101879.38;4768924;30;20435;-60
2022/09/01 09:50:28;;;;;;;4.03;2.00;;;;;;;23.06;46.28;101876.09;4768839;30;20054;-61
2022/09/01 09:53:13;;;;;;;4.93;1.85;;;;;;;23.21;46.38;101872.69;4768691;30;20043;-61
2022/09/01 09:55:53;;;;;;;3.83;1.92;;;;;;;23.35;45.19;101869.34;4768408;30;20128;-61
2022/09/01 09:58:25;;;;;;;4.60;1.70;;;;;;;23.40;43.65;101875.28;4768828;30;20044;-59
2022/09/01 10:01:13;;;;;;;2.58;1.55;;;;;;;23.53;43.27;101867.56;4768784;30;20097;-62
2022/09/01 10:03:47;;;;;;;2.85;1.20;;;;;;;23.32;42.32;101868.63;4768524;30;20050;-61
2022/09/01 10:06:27;;;;;;;5.93;1.92;;;;;;;23.47;42.99;101871.38;4768638;30;20162;-60
2022/09/01 10:08:52;;;;;;;2.40;1.30;;;;;;;23.67;41.55;101858.84;4768619;30;20043;-60
2022/09/01 10:11:40;;;;;;;4.53;1.47;;;;;;;23.87;42.48;101869.38;4768659;30;20054;-63
2022/09/01 10:14:17;;;;;;;2.58;1.15;;;;;;;24.02;40.40;101865.88;4768653;30;20373;-60
2022/09/01 10:16:47;;;;;;;5.30;1.35;;;;;;;24.04;38.59;101864.00;4768278;30;20590;-62
2022/09/01 10:19:14;;;;;;;2.10;1.30;;;;;;;24.17;39.26;101859.69;4768646;30;20093;-60
2022/09/01 10:21:43;;;;;;;1.98;0.82;;;;;;;24.32;37.77;101851.81;4768202;30;20512;-59
2022/09/01 10:24:14;;;;;;;4.60;1.02;;;;;;;24.47;37.63;101856.31;4768671;30;20391;-62
2022/09/01 10:26:42;;;;;;;3.88;1.30;;;;;;;24.35;36.92;101863.22;4768160;30;20051;-63
2022/09/01 10:29:31;;;;;;;2.10;0.90;;;;;;;24.63;38.03;101858.06;4768378;30;20040;-60
2022/09/01 10:31:59;;;;;;;7.60;1.33;;;;;;;24.64;35.18;101861.59;4767949;30;20054;-62
2022/09/01 10:34:26;;;;;;;3.67;1.40;;;;;;;24.54;35.24;101858.59;4768375;30;20039;-62
2022/09/01 10:36:53;;;;;;;3.30;1.17;;;;;;;24.55;35.22;101870.16;4768431;30;20547;-61
2022/09/01 10:39:19;;;;;;;2.25;1.20;;;;;;;24.52;35.62;101864.97;4767997;30;20040;-63
2022/09/01 10:41:56;;;;;;;3.88;1.35;;;;;;;24.63;35.18;101862.53;4768291;30;20032;-64
2022/09/01 10:44:30;;;;;;;5.28;1.30;;;;;;;24.51;35.54;101849.84;4768175;30;20050;-65
2022/09/01 10:46:59;;;;;;;3.70;1.13;;;;;;;24.50;35.57;101865.03;4768424;30;20083;-61
2022/09/01 10:49:27;;;;;;;2.50;1.00;;;;;;;24.58;34.35;101862.81;4770437;30;20047;-61
2022/09/01 10:51:54;;;;;;;2.90;1.10;;;;;;;24.59;34.55;101860.97;4768029;30;20097;-60
2022/09/01 10:54:38;;;;;;;4.55;1.05;;;;;;;24.60;35.67;101852.88;4772579;30;20042;-61
2022/09/01 10:57:42;;;;;;;2.53;1.23;;;;;;;24.70;35.59;101858.59;4781333;29;20055;-60
2022/09/01 11:00:43;;;;;;;2.38;1.15;;;;;;;24.59;35.54;101850.28;4786120;29;20071;-62
2022/09/01 11:03:11;;;;;;;2.58;1.10;;;;;;;24.50;34.85;101859.69;4773151;30;20093;-63
2022/09/01 11:05:54;;;;;;;2.53;0.98;;;;;;;24.59;35.27;101851.13;4771684;30;20071;-61
2022/09/01 11:08:23;;;;;;;5.05;1.20;;;;;;;24.60;34.48;101852.00;4771579;30;20040;-62
2022/09/01 11:10:56;;;;;;;4.15;1.08;;;;;;;24.62;34.56;101848.28;4771416;30;20054;-62
2022/09/01 11:13:43;;;;;;;3.40;1.20;;;;;;;24.62;33.87;101847.44;4771489;30;20051;-61
2022/09/01 11:16:26;;;;;;;4.70;1.20;;;;;;;24.55;35.32;101844.25;4773953;30;20123;-61
2022/09/01 11:18:53;;;;;;;4.50;1.10;;;;;;;24.63;33.81;101844.66;4775934;30;20047;-63
2022/09/01 11:21:28;;;;;;;2.53;1.00;;;;;;;24.70;34.20;101844.34;4780639;30;20039;-61
2022/09/01 11:24:31;;;;;;;2.85;1.30;;;;;;;24.67;35.41;101834.66;4780466;30;20039;-61
2022/09/01 11:26:57;;;;;;;4.25;1.23;;;;;;;24.97;33.23;101829.38;4789103;30;20046;-62
2022/09/01 11:29:54;;;;;;;2.25;1.13;;;;;;;25.15;34.46;101833.66;4778399;29;20050;-62
2022/09/01 11:32:23;;;;;;;2.58;1.17;;;;;;;25.25;33.42;101826.84;4771141;30;20378;-64
2022/09/01 11:34:50;;;;;;;4.40;1.17;;;;;;;25.42;33.49;101824.97;4770766;30;20039;-62
2022/09/01 11:37:19;;;;;;;5.22;1.63;;;;;;;25.49;33.66;101832.53;4771011;30;20469;-61
2022/09/01 11:39:51;;;;;;;3.80;1.23;;;;;;;25.54;33.85;101822.41;4770789;30;20039;-60
2022/09/01 11:42:20;;;;;;;4.43;1.27;;;;;;;25.47;32.97;101812.13;4770885;30;20126;-61